createdAt,value
2019-01-25T00:01:46.676Z,43.20
2019-01-25T00:04:14.234Z,45.73
2019-01-25T00:06:41.788Z,48.97
2019-01-25T00:09:09.362Z,47.33
2019-01-25T00:11:36.984Z,43.57
2019-01-25T00:14:04.563Z,42.70
2019-01-25T00:16:32.107Z,43.67
2019-01-25T00:18:59.685Z,40.63
2019-01-25T00:21:27.238Z,43.17
2019-01-25T00:23:54.867Z,43.03
2019-01-25T00:26:22.448Z,47.47
2019-01-25T00:28:50.068Z,43.33
2019-01-25T00:31:17.625Z,47.10
2019-01-25T00:33:45.168Z,44.67
2019-01-25T00:36:12.821Z,41.80
2019-01-25T00:38:40.384Z,44.87
2019-01-25T00:41:07.952Z,44.10
2019-01-25T00:43:35.500Z,43.87
2019-01-25T00:46:03.077Z,47.33
2019-01-25T00:48:30.619Z,45.73
2019-01-25T00:50:58.317Z,47.00
2019-01-25T00:53:25.891Z,45.00
2019-01-25T00:55:53.437Z,45.63
2019-01-25T00:58:21.007Z,42.23
2019-01-25T01:00:48.555Z,42.73
2019-01-25T01:03:16.134Z,48.00
2019-01-25T01:05:43.704Z,46.40
2019-01-25T01:08:12.051Z,45.03
2019-01-25T01:10:39.598Z,44.70
2019-01-25T01:13:07.145Z,44.60
2019-01-25T01:15:35.711Z,44.67
2019-01-25T01:18:03.256Z,43.33
2019-01-25T01:20:30.925Z,46.80
2019-01-25T01:22:58.510Z,42.47
2019-01-25T01:25:26.105Z,44.80
2019-01-25T01:27:54.412Z,42.73
2019-01-25T01:30:21.983Z,43.60
2019-01-25T01:32:49.562Z,44.17
2019-01-25T01:35:17.114Z,44.27
2019-01-25T01:37:44.676Z,43.90
2019-01-25T01:40:21.783Z,44.60
2019-01-25T01:42:44.471Z,43.20
2019-01-25T01:45:12.367Z,46.37
2019-01-25T01:47:39.907Z,47.67
2019-01-25T01:50:11.237Z,45.50
2019-01-25T01:52:38.812Z,46.40
2019-01-25T01:55:06.363Z,46.13
2019-01-25T01:57:33.935Z,45.70
2019-01-25T02:00:01.512Z,47.90
2019-01-25T02:02:29.105Z,45.90
2019-01-25T02:04:56.685Z,46.73
2019-01-25T02:07:24.231Z,49.00
2019-01-25T02:09:51.811Z,48.73
2019-01-25T02:12:19.387Z,46.97
2019-01-25T02:14:46.959Z,46.37
2019-01-25T02:17:14.503Z,46.50
2019-01-25T02:19:42.056Z,44.17
2019-01-25T02:22:09.648Z,46.80
2019-01-25T02:24:37.192Z,46.17
2019-01-25T02:27:05.540Z,47.67
2019-01-25T02:29:33.116Z,47.70
2019-01-25T02:32:01.627Z,47.37
2019-01-25T02:34:29.200Z,47.10
2019-01-25T02:36:56.759Z,47.97
2019-01-25T02:39:24.333Z,47.37
2019-01-25T02:41:51.904Z,47.07
2019-01-25T02:44:19.460Z,46.30
2019-01-25T02:46:47.037Z,50.20
2019-01-25T02:49:14.593Z,49.43
2019-01-25T02:51:42.169Z,50.23
2019-01-25T02:54:09.737Z,49.40
2019-01-25T02:56:38.313Z,48.60
2019-01-25T02:59:05.860Z,46.47
2019-01-25T03:01:33.452Z,47.73
2019-01-25T03:04:01.033Z,48.50
2019-01-25T03:06:28.576Z,48.87
2019-01-25T03:08:56.152Z,48.93
2019-01-25T03:11:23.697Z,48.87
2019-01-25T03:13:51.269Z,49.50
2019-01-25T03:16:18.817Z,47.43
2019-01-25T03:18:46.400Z,48.80
2019-01-25T03:21:13.965Z,47.47
2019-01-25T03:23:41.540Z,48.30
2019-01-25T03:26:09.088Z,50.57
2019-01-25T03:28:36.676Z,48.50
2019-01-25T03:31:05.025Z,47.47
2019-01-25T03:33:32.584Z,51.03
2019-01-25T03:36:00.172Z,50.60
2019-01-25T03:38:27.728Z,47.40
2019-01-25T03:40:56.073Z,47.00
2019-01-25T03:43:23.640Z,48.70
2019-01-25T03:45:51.211Z,49.00
2019-01-25T03:48:18.768Z,51.05
2019-01-25T03:50:47.083Z,49.97
2019-01-25T03:53:14.665Z,50.03
2019-01-25T03:55:42.213Z,49.47
2019-01-25T03:58:09.803Z,51.05
2019-01-25T04:00:37.356Z,50.93
2019-01-25T04:03:04.944Z,48.92
2019-01-25T04:05:32.534Z,52.00
2019-01-25T04:08:00.100Z,51.10
2019-01-25T04:10:27.685Z,49.80
2019-01-25T04:12:55.237Z,50.70
2019-01-25T04:15:22.825Z,50.67
2019-01-25T04:17:50.385Z,52.27
2019-01-25T04:20:17.977Z,51.00
2019-01-25T04:22:45.544Z,51.67
2019-01-25T04:25:13.108Z,52.70
2019-01-25T04:27:40.704Z,51.30
2019-01-25T04:30:08.998Z,50.70
2019-01-25T04:32:36.584Z,56.20
2019-01-25T04:35:04.149Z,54.70
2019-01-25T04:37:31.732Z,53.57
2019-01-25T04:39:59.321Z,54.80
2019-01-25T04:42:27.636Z,52.73
2019-01-25T04:44:55.223Z,47.88
2019-01-25T04:47:22.775Z,51.67
2019-01-25T04:49:50.369Z,49.90
2019-01-25T04:52:18.703Z,51.63
2019-01-25T04:54:46.289Z,51.27
2019-01-25T04:57:13.859Z,50.47
2019-01-25T04:59:41.461Z,51.85
2019-01-25T05:02:09.041Z,49.73
2019-01-25T05:04:36.592Z,49.70
2019-01-25T05:07:04.171Z,51.23
2019-01-25T05:09:31.792Z,51.53
2019-01-25T05:11:59.381Z,50.40
2019-01-25T05:14:26.942Z,53.03
2019-01-25T05:16:54.528Z,51.57
2019-01-25T05:19:22.105Z,51.95
2019-01-25T05:21:49.664Z,50.00
2019-01-25T05:24:17.256Z,49.92
2019-01-25T05:26:44.847Z,52.00
2019-01-25T05:29:12.451Z,50.67
2019-01-25T05:31:40.001Z,53.67
2019-01-25T05:34:07.590Z,56.57
2019-01-25T05:36:35.135Z,52.50
2019-01-25T05:39:02.720Z,53.37
2019-01-25T05:41:30.306Z,54.60
2019-01-25T05:43:58.871Z,64.87
2019-01-25T05:46:27.359Z,55.30
2019-01-25T05:48:55.686Z,50.57
2019-01-25T05:51:23.259Z,50.60
2019-01-25T05:53:50.813Z,49.10
2019-01-25T05:56:18.424Z,50.20
2019-01-25T05:58:45.984Z,52.17
2019-01-25T06:01:13.563Z,54.60
2019-01-25T06:03:41.124Z,55.73
2019-01-25T06:06:08.697Z,51.92
2019-01-25T06:08:43.597Z,52.78
2019-01-25T06:11:04.665Z,54.60
2019-01-25T06:13:33.025Z,56.03
2019-01-25T06:16:00.583Z,54.87
2019-01-25T06:18:29.150Z,56.23
2019-01-25T06:20:56.710Z,52.63
2019-01-25T06:23:24.288Z,53.22
2019-01-25T06:25:51.870Z,52.97
2019-01-25T06:28:19.428Z,60.40
2019-01-25T06:30:47.005Z,53.63
2019-01-25T06:33:14.564Z,52.73
2019-01-25T06:35:42.145Z,51.87
2019-01-25T06:38:09.740Z,54.92
2019-01-25T06:40:38.065Z,55.90
2019-01-25T06:43:05.652Z,55.50
2019-01-25T06:45:33.214Z,55.33
2019-01-25T06:48:02.745Z,57.90
2019-01-25T06:50:30.301Z,57.87
2019-01-25T06:52:57.892Z,56.97
2019-01-25T06:55:25.452Z,56.20
2019-01-25T06:57:58.636Z,55.67
2019-01-25T07:00:26.956Z,60.73
2019-01-25T07:02:54.540Z,57.30
2019-01-25T07:05:22.114Z,60.17
2019-01-25T07:07:49.668Z,58.17
2019-01-25T07:10:18.231Z,57.20
2019-01-25T07:12:45.788Z,54.37
2019-01-25T07:15:14.148Z,55.22
2019-01-25T07:17:41.709Z,55.77
2019-01-25T07:20:10.347Z,54.90
2019-01-25T07:22:38.002Z,58.60
2019-01-25T07:25:05.552Z,55.20
2019-01-25T07:27:33.130Z,57.53
2019-01-25T07:30:00.944Z,56.67
2019-01-25T07:32:28.613Z,55.77
2019-01-25T07:34:56.185Z,55.23
2019-01-25T07:37:23.775Z,57.27
2019-01-25T07:39:51.347Z,143.93
2019-01-25T07:42:18.945Z,61.80
2019-01-25T07:44:46.543Z,71.67
2019-01-25T07:47:14.105Z,60.53
2019-01-25T07:49:41.685Z,56.40
2019-01-25T07:52:09.269Z,56.83
2019-01-25T07:54:36.867Z,55.70
2019-01-25T07:57:04.459Z,54.30
2019-01-25T07:59:32.135Z,55.37
2019-01-25T08:01:59.682Z,56.57
2019-01-25T08:04:27.290Z,56.30
2019-01-25T08:06:54.867Z,56.15
2019-01-25T08:09:22.441Z,52.27
2019-01-25T08:11:50.057Z,56.30
2019-01-25T08:14:17.617Z,55.17
2019-01-25T08:16:45.201Z,54.83
2019-01-25T08:19:12.758Z,54.13
2019-01-25T08:21:40.347Z,53.20
2019-01-25T08:24:08.709Z,52.10
2019-01-25T08:26:36.325Z,51.60
2019-01-25T08:29:04.093Z,53.67
2019-01-25T08:31:31.510Z,51.23
2019-01-25T08:34:00.052Z,55.53
2019-01-25T08:36:27.658Z,51.28
2019-01-25T08:38:55.254Z,50.47
2019-01-25T08:41:22.840Z,48.30
2019-01-25T08:43:50.396Z,48.17
2019-01-25T08:46:17.972Z,46.00
2019-01-25T08:48:45.521Z,47.47
2019-01-25T08:51:13.141Z,45.27
2019-01-25T08:53:41.512Z,43.90
2019-01-25T08:56:08.337Z,44.50
2019-01-25T08:58:35.982Z,44.60
2019-01-25T09:01:03.565Z,43.27
2019-01-25T09:03:31.125Z,48.07
2019-01-25T09:05:58.746Z,45.73
2019-01-25T09:08:27.320Z,44.67
2019-01-25T09:10:54.867Z,42.33
2019-01-25T09:13:23.455Z,42.03
2019-01-25T09:15:51.000Z,41.77
2019-01-25T09:18:26.370Z,41.67
2019-01-25T09:20:54.890Z,42.23
2019-01-25T09:23:22.469Z,44.50
2019-01-25T09:25:50.041Z,46.83
2019-01-25T09:28:17.592Z,43.90
2019-01-25T09:30:45.171Z,42.20
2019-01-25T09:33:12.732Z,44.73
2019-01-25T09:35:40.319Z,43.10
2019-01-25T09:38:07.881Z,44.10
2019-01-25T09:40:35.432Z,46.20
2019-01-25T09:43:03.016Z,44.13
2019-01-25T09:45:30.564Z,44.70
2019-01-25T09:47:59.111Z,44.13
2019-01-25T09:50:27.432Z,42.03
2019-01-25T09:52:56.008Z,44.23
2019-01-25T09:55:24.463Z,43.60
2019-01-25T09:57:51.191Z,46.43
2019-01-25T10:00:24.180Z,43.80
2019-01-25T10:02:51.725Z,42.30
2019-01-25T10:05:19.312Z,45.42
2019-01-25T10:07:46.861Z,41.93
2019-01-25T10:10:14.440Z,44.30
2019-01-25T10:12:43.482Z,45.30
2019-01-25T10:15:09.621Z,44.40
2019-01-25T10:17:43.796Z,47.30
2019-01-25T10:20:11.410Z,45.80
2019-01-25T10:22:39.189Z,44.53
2019-01-25T10:25:07.674Z,45.67
2019-01-25T10:27:35.228Z,47.90
2019-01-25T10:30:02.797Z,46.10
2019-01-25T10:32:30.375Z,42.67
2019-01-25T10:34:57.930Z,44.97
2019-01-25T10:37:25.508Z,47.63
2019-01-25T10:39:53.086Z,40.53
2019-01-25T10:42:20.641Z,41.23
2019-01-25T10:44:48.984Z,41.30
2019-01-25T10:47:16.532Z,44.07
2019-01-25T10:49:44.105Z,41.17
2019-01-25T10:52:11.656Z,42.67
2019-01-25T10:54:39.236Z,42.57
2019-01-25T10:57:06.793Z,46.80
2019-01-25T10:59:34.344Z,42.30
2019-01-25T11:02:02.704Z,41.10
2019-01-25T11:04:30.356Z,41.70
2019-01-25T11:06:57.938Z,41.10
2019-01-25T11:09:26.265Z,42.00
2019-01-25T11:11:54.828Z,47.67
2019-01-25T11:14:22.376Z,42.13
2019-01-25T11:16:49.932Z,43.50
2019-01-25T11:19:17.509Z,41.70
2019-01-25T11:21:45.056Z,40.57
2019-01-25T11:24:12.633Z,41.10
2019-01-25T11:26:40.224Z,43.20
2019-01-25T11:29:07.794Z,43.53
2019-01-25T11:31:35.336Z,44.37
2019-01-25T11:34:02.921Z,45.47
2019-01-25T11:36:30.470Z,44.90
2019-01-25T11:38:58.780Z,42.50
2019-01-25T11:41:26.348Z,42.83
2019-01-25T11:43:53.905Z,42.70
2019-01-25T11:46:21.477Z,41.20
2019-01-25T11:48:49.030Z,40.30
2019-01-25T11:51:16.696Z,45.20
2019-01-25T11:53:44.252Z,39.43
2019-01-25T11:56:11.796Z,42.17
2019-01-25T11:58:39.369Z,43.83
2019-01-25T12:01:06.943Z,39.10
2019-01-25T12:03:34.536Z,40.37
2019-01-25T12:06:02.102Z,43.87
2019-01-25T12:08:30.748Z,38.60
2019-01-25T12:10:58.320Z,40.90
2019-01-25T12:13:25.897Z,41.27
2019-01-25T12:15:53.476Z,41.80
2019-01-25T12:18:21.137Z,38.93
2019-01-25T12:20:49.616Z,38.70
2019-01-25T12:23:17.166Z,38.97
2019-01-25T12:25:44.736Z,39.27
2019-01-25T12:28:12.292Z,36.47
2019-01-25T12:30:39.840Z,38.20
2019-01-25T12:33:08.409Z,38.07
2019-01-25T12:35:37.898Z,41.10
2019-01-25T12:38:05.452Z,38.13
2019-01-25T12:40:33.761Z,39.07
2019-01-25T12:43:01.340Z,36.80
2019-01-25T12:45:28.887Z,40.20
2019-01-25T12:47:56.440Z,38.37
2019-01-25T12:53:19.404Z,42.03
2019-01-25T12:55:46.977Z,39.70
2019-01-25T12:58:14.523Z,41.30
2019-01-25T13:00:42.096Z,38.73
2019-01-25T13:03:09.651Z,37.80
2019-01-25T13:05:38.223Z,37.27
2019-01-25T13:08:05.772Z,38.23
2019-01-25T13:10:34.310Z,37.27
2019-01-25T13:13:01.928Z,35.77
2019-01-25T13:15:29.486Z,35.07
2019-01-25T13:17:57.066Z,37.63
2019-01-25T13:20:24.615Z,35.30
2019-01-25T13:22:52.210Z,35.40
2019-01-25T13:25:19.828Z,37.77
2019-01-25T13:27:47.395Z,36.80
2019-01-25T13:30:14.979Z,37.37
2019-01-25T13:32:42.604Z,33.10
2019-01-25T13:35:10.352Z,37.27
2019-01-25T13:37:37.928Z,36.80
2019-01-25T13:40:07.021Z,36.60
2019-01-25T13:42:34.608Z,37.40
2019-01-25T13:45:02.926Z,38.43
2019-01-25T13:47:30.500Z,35.83
2019-01-25T13:49:58.048Z,34.60
2019-01-25T13:52:25.619Z,34.73
2019-01-25T13:54:53.163Z,32.83
2019-01-25T13:57:20.712Z,33.07
2019-01-25T13:59:48.286Z,37.73
2019-01-25T14:02:15.828Z,37.60
2019-01-25T14:04:43.395Z,37.33
2019-01-25T14:07:21.107Z,39.20
2019-01-25T14:09:44.794Z,38.83
2019-01-25T14:12:12.344Z,38.77
2019-01-25T14:14:39.928Z,36.87
2019-01-25T14:17:07.501Z,38.40
2019-01-25T14:19:35.077Z,37.20
2019-01-25T14:22:02.672Z,34.83
2019-01-25T14:24:30.256Z,33.97
2019-01-25T14:26:58.614Z,31.10
2019-01-25T14:29:29.238Z,31.00
2019-01-25T14:31:55.313Z,31.77
2019-01-25T14:34:22.889Z,33.50
2019-01-25T14:36:50.433Z,35.20
2019-01-25T14:39:18.009Z,34.83
2019-01-25T14:41:45.588Z,34.00
2019-01-25T14:44:13.161Z,35.03
2019-01-25T14:46:40.718Z,32.20
2019-01-25T14:49:09.034Z,31.40
2019-01-25T14:51:37.599Z,33.00
2019-01-25T14:54:05.144Z,35.30
2019-01-25T14:56:32.717Z,34.23
2019-01-25T14:59:00.300Z,34.80
2019-01-25T15:01:27.842Z,34.47
2019-01-25T15:03:55.437Z,34.87
2019-01-25T15:06:22.993Z,33.83
2019-01-25T15:08:51.555Z,32.97
2019-01-25T15:11:19.623Z,35.70
2019-01-25T15:13:46.712Z,33.27
2019-01-25T15:16:15.033Z,33.50
2019-01-25T15:18:42.577Z,33.37
2019-01-25T15:21:10.155Z,37.30
2019-01-25T15:23:37.717Z,35.43
2019-01-25T15:26:05.288Z,34.43
2019-01-25T15:28:32.852Z,35.20
2019-01-25T15:31:00.430Z,33.47
2019-01-25T15:33:28.745Z,32.67
2019-01-25T15:35:56.322Z,34.00
2019-01-25T15:38:23.900Z,33.07
2019-01-25T15:40:51.485Z,33.47
2019-01-25T15:43:19.824Z,32.90
2019-01-25T15:45:47.664Z,33.20
2019-01-25T15:48:15.237Z,32.90
2019-01-25T15:50:42.787Z,34.33
2019-01-25T15:53:10.360Z,34.57
2019-01-25T15:55:37.910Z,33.60
2019-01-25T15:58:05.487Z,33.60
2019-01-25T16:00:33.025Z,33.80
2019-01-25T16:03:00.577Z,33.90
2019-01-25T16:05:29.152Z,35.90
2019-01-25T16:07:56.794Z,35.80
2019-01-25T16:10:24.387Z,35.23
2019-01-25T16:12:51.943Z,36.30
2019-01-25T16:15:21.084Z,37.83
2019-01-25T16:17:49.430Z,38.07
2019-01-25T16:20:16.986Z,34.07
2019-01-25T16:22:44.541Z,34.43
2019-01-25T16:25:12.971Z,37.15
2019-01-25T16:27:40.554Z,37.93
2019-01-25T16:30:11.620Z,36.40
2019-01-25T16:32:39.193Z,35.77
2019-01-25T16:35:06.772Z,35.30
2019-01-25T16:37:34.326Z,35.17
2019-01-25T16:40:02.672Z,36.50
2019-01-25T16:42:30.245Z,35.40
2019-01-25T16:44:57.828Z,35.60
2019-01-25T16:47:25.369Z,34.50
2019-01-25T16:49:53.712Z,32.60
2019-01-25T16:52:21.265Z,32.73
2019-01-25T16:54:48.844Z,33.97
2019-01-25T16:57:16.389Z,35.70
2019-01-25T16:59:44.976Z,36.80
2019-01-25T17:02:12.549Z,36.57
2019-01-25T17:04:40.894Z,40.80
2019-01-25T17:07:08.453Z,32.70
2019-01-25T17:09:36.032Z,37.50
2019-01-25T17:12:03.580Z,34.23
2019-01-25T17:14:33.473Z,36.40
2019-01-25T17:16:58.784Z,37.37
2019-01-25T17:19:26.328Z,34.33
2019-01-25T17:21:53.906Z,33.40
2019-01-25T17:24:21.452Z,31.67
2019-01-25T17:26:49.035Z,31.57
2019-01-25T17:29:16.753Z,35.00
2019-01-25T17:31:44.305Z,35.97
2019-01-25T17:34:11.881Z,32.80
2019-01-25T17:36:39.432Z,34.60
2019-01-25T17:39:07.017Z,30.17
2019-01-25T17:41:34.570Z,28.40
2019-01-25T17:44:02.152Z,25.40
2019-01-25T17:46:29.712Z,25.40
2019-01-25T17:48:57.285Z,22.23
2019-01-25T17:51:24.989Z,21.50
2019-01-25T17:53:53.146Z,20.97
2019-01-25T17:56:20.725Z,16.93
2019-01-25T17:58:48.281Z,21.73
2019-01-25T18:01:15.831Z,18.50
2019-01-25T18:03:43.431Z,21.67
2019-01-25T18:06:11.012Z,23.37
2019-01-25T18:08:38.594Z,18.77
2019-01-25T18:11:06.150Z,22.33
2019-01-25T18:13:33.725Z,23.07
2019-01-25T18:16:01.289Z,31.60
2019-01-25T18:18:28.874Z,26.40
2019-01-25T18:20:57.196Z,24.40
2019-01-25T18:23:25.673Z,22.70
2019-01-25T18:25:52.377Z,26.90
2019-01-25T18:28:29.172Z,26.67
2019-01-25T18:30:59.402Z,93.10
2019-01-25T18:33:26.957Z,42.17
2019-01-25T18:35:54.537Z,25.97
2019-01-25T18:38:22.090Z,24.30
2019-01-25T18:40:49.717Z,16.80
2019-01-25T18:43:17.643Z,17.37
2019-01-25T18:45:44.857Z,15.70
2019-01-25T18:48:12.430Z,25.07
2019-01-25T18:50:39.984Z,24.30
2019-01-25T18:53:07.561Z,22.53
2019-01-25T18:55:35.108Z,21.70
2019-01-25T18:58:02.675Z,23.13
2019-01-25T19:00:30.224Z,23.20
2019-01-25T19:02:57.800Z,19.70
2019-01-25T19:05:25.347Z,21.20
2019-01-25T19:07:52.891Z,18.00
2019-01-25T19:10:21.231Z,18.57
2019-01-25T19:12:48.789Z,15.53
2019-01-25T19:15:18.387Z,13.53
2019-01-25T19:17:45.928Z,13.00
2019-01-25T19:20:14.264Z,12.30
2019-01-25T19:22:41.812Z,13.13
2019-01-25T19:25:09.420Z,14.73
2019-01-25T19:27:36.996Z,15.63
2019-01-25T19:30:16.101Z,14.70
2019-01-25T19:32:44.417Z,15.30
2019-01-25T19:35:12.725Z,14.13
2019-01-25T19:37:40.301Z,15.00
2019-01-25T19:40:08.633Z,22.60
2019-01-25T19:42:36.205Z,16.77
2019-01-25T19:45:03.762Z,38.30
2019-01-25T19:47:31.343Z,44.17
2019-01-25T19:49:58.915Z,17.60
2019-01-25T19:52:26.458Z,15.50
2019-01-25T19:54:54.038Z,13.70
2019-01-25T19:57:22.378Z,16.30
2019-01-25T19:59:49.958Z,15.73
2019-01-25T20:02:17.501Z,18.67
2019-01-25T20:04:45.077Z,15.70
2019-01-25T20:07:13.394Z,14.30
2019-01-25T20:09:40.972Z,17.03
2019-01-25T20:12:08.519Z,15.50
2019-01-25T20:14:36.096Z,15.13
2019-01-25T20:17:03.649Z,16.60
2019-01-25T20:19:31.391Z,14.90
2019-01-25T20:21:58.967Z,18.27
2019-01-25T20:24:26.519Z,17.00
2019-01-25T20:26:54.092Z,14.70
2019-01-25T20:29:21.637Z,18.97
2019-01-25T20:31:49.216Z,19.13
2019-01-25T20:34:16.755Z,17.63
2019-01-25T20:36:44.332Z,17.90
2019-01-25T20:39:11.895Z,17.30
2019-01-25T20:41:39.451Z,16.63
2019-01-25T20:44:07.031Z,19.07
2019-01-25T20:46:34.614Z,16.13
2019-01-25T20:49:02.185Z,20.17
2019-01-25T20:51:29.748Z,22.37
2019-01-25T20:53:57.320Z,17.53
2019-01-25T20:56:24.869Z,18.10
2019-01-25T20:58:52.440Z,17.00
2019-01-25T21:01:19.994Z,17.27
2019-01-25T21:03:47.575Z,15.70
2019-01-25T21:06:15.125Z,15.77
2019-01-25T21:08:42.700Z,14.40
2019-01-25T21:11:10.272Z,15.93
2019-01-25T21:13:37.849Z,15.00
2019-01-25T21:16:05.508Z,15.30
2019-01-25T21:18:33.054Z,16.27
2019-01-25T21:21:00.625Z,16.60
2019-01-25T21:23:28.181Z,18.43
2019-01-25T21:25:55.756Z,17.17
2019-01-25T21:28:23.304Z,17.23
2019-01-25T21:30:51.267Z,17.17
2019-01-25T21:33:18.839Z,18.33
2019-01-25T21:35:47.712Z,16.63
2019-01-25T21:38:15.288Z,17.37
2019-01-25T21:40:43.239Z,14.85
2019-01-25T21:43:10.833Z,14.67
2019-01-25T21:45:43.006Z,14.60
2019-01-25T21:48:06.009Z,15.33
2019-01-25T21:50:35.128Z,13.57
2019-01-25T21:53:03.212Z,14.50
2019-01-25T21:55:31.038Z,13.83
2019-01-25T21:58:05.489Z,15.70
2019-01-25T22:00:28.004Z,14.57
2019-01-25T22:02:55.582Z,13.33
2019-01-25T22:05:23.160Z,14.60
2019-01-25T22:07:50.712Z,14.00
2019-01-25T22:10:18.293Z,14.00
2019-01-25T22:12:45.850Z,13.87
2019-01-25T22:15:13.425Z,14.80
2019-01-25T22:17:40.977Z,15.10
2019-01-25T22:20:11.458Z,14.57
2019-01-25T22:22:39.019Z,12.13
2019-01-25T22:25:06.599Z,11.00
2019-01-25T22:27:34.928Z,11.20
2019-01-25T22:30:02.468Z,11.00
2019-01-25T22:32:30.044Z,10.17
2019-01-25T22:34:57.585Z,11.93
2019-01-25T22:37:25.173Z,12.33
2019-01-25T22:39:52.720Z,11.47
2019-01-25T22:42:20.289Z,12.50
2019-01-25T22:44:47.836Z,11.97
2019-01-25T22:47:20.261Z,11.70
2019-01-25T22:49:43.103Z,12.77
2019-01-25T22:52:10.672Z,11.70
2019-01-25T22:54:38.212Z,9.40
2019-01-25T22:57:06.561Z,9.13
2019-01-25T22:59:34.134Z,9.53
2019-01-25T23:02:01.672Z,8.20
2019-01-25T23:04:30.737Z,9.40
2019-01-25T23:06:59.387Z,8.43
2019-01-25T23:09:25.900Z,8.27
2019-01-25T23:11:53.436Z,8.57
2019-01-25T23:14:21.007Z,8.40
2019-01-25T23:16:48.543Z,9.10
2019-01-25T23:19:17.111Z,9.63
2019-01-25T23:21:45.339Z,9.80
2019-01-25T23:24:12.982Z,9.57
2019-01-25T23:26:41.935Z,8.87
2019-01-25T23:29:10.456Z,10.93
2019-01-25T23:31:38.677Z,8.80
2019-01-25T23:34:06.439Z,7.83
2019-01-25T23:36:34.069Z,8.00
2019-01-25T23:39:02.271Z,8.53
2019-01-25T23:41:34.408Z,8.70
2019-01-25T23:44:02.662Z,13.07
2019-01-25T23:46:32.000Z,8.23
2019-01-25T23:48:59.652Z,7.50
2019-01-25T23:51:27.532Z,8.60
2019-01-25T23:53:55.607Z,9.10
2019-01-25T23:56:23.671Z,9.60
2019-01-25T23:58:51.660Z,8.60
